ワルシャワ の空港の天気 - METARとTAF

ワルシャワ・フレデリック・ショパン空港 ( EPWA / WAW ) - ポーランド ワルシャワ
飛行場実況気象(Metar)
観測時間12/14 07:00 CET (12/14 06:00 UTC)
風向・風速北 3m/s
視程10km以上
天気現象
少しの雲 雲底高度 550m
全天の8割程度の雲 雲底高度 790m
気温0℃
湿度80%
気圧1024hPa
METAREPWA 140600Z 01006KT 340V040 9999 FEW018 BKN026 00/M03 Q1024 NOSIG
過去の天気等 Google飛行場航空写真 Wunderground天気予報

過去48時間のMETAR

飛行場予報(TAF)
発表時間: 12/14 06:30 CET (12/14 05:30 UTC)
予報対象時間: 14日7時 CET ~ 15日7時 CET
風向・風速北東 3m/s
視程10km以上
全天の8割程度の雲 雲底高度 370m
全天を覆う雲 雲底高度 610m
14日11時 CET ~ 15日7時 CET に 確率 30% で一時的に
視程4500m
天気現象弱い雪 もや
全天の8割程度の雲 雲底高度 210m
TAF EPWA 140530Z 1406/1506 04006KT 9999 BKN012 OVC020
PROB30 TEMPO 1410/1506 4500 -SN BR BKN007